createdAt,value
2019-01-19T00:01:49.075Z,-21108.35
2019-01-19T00:04:29.581Z,-21106.64
2019-01-19T00:07:06.968Z,-21098.52
2019-01-19T00:09:43.972Z,-21082.98
2019-01-19T00:12:37.886Z,-21066.44
2019-01-19T00:15:09.326Z,-21094.81
2019-01-19T00:17:55.833Z,-21104.22
2019-01-19T00:20:30.346Z,-21108.21
2019-01-19T00:23:10.955Z,-21100.23
2019-01-19T00:25:54.315Z,-21083.98
2019-01-19T00:28:34.787Z,-21092.96
2019-01-19T00:34:13.920Z,-21097.10
2019-01-19T00:36:45.352Z,-21083.55
2019-01-19T00:39:22.340Z,-21096.96
2019-01-19T00:42:02.667Z,-21108.92
2019-01-19T00:44:52.227Z,-21102.93
2019-01-19T00:47:46.418Z,-21099.23
2019-01-19T00:50:35.741Z,-21089.54
2019-01-19T00:53:16.167Z,-21089.12
2019-01-19T00:55:53.272Z,-21078.85
2019-01-19T00:58:27.543Z,-21099.09
2019-01-19T01:01:07.724Z,-21101.23
2019-01-19T01:04:05.033Z,-21086.13
2019-01-19T01:06:51.378Z,-21095.39
2019-01-19T01:09:22.803Z,-21084.98
2019-01-19T01:11:57.176Z,-21105.93
2019-01-19T01:14:43.716Z,-21103.93
2019-01-19T01:17:17.947Z,-21090.11
2019-01-19T01:19:52.073Z,-21073.71
2019-01-19T01:22:29.559Z,-21083.98
2019-01-19T01:25:04.144Z,-21074.43
2019-01-19T01:27:44.729Z,-21084.41
2019-01-19T01:30:31.344Z,-21083.13
2019-01-19T01:33:11.616Z,-21087.13
2019-01-19T01:36:07.247Z,-21079.56
2019-01-19T01:38:44.404Z,-21071.15
2019-01-19T01:41:21.633Z,-21087.98
2019-01-19T01:44:16.806Z,-21087.55
2019-01-19T01:46:50.813Z,-21073.71
2019-01-19T01:49:28.270Z,-21084.70
2019-01-19T01:52:20.583Z,-21091.26
2019-01-19T01:54:52.010Z,-21078.85
2019-01-19T01:57:23.622Z,-21079.85
2019-01-19T02:00:07.168Z,-21090.11
2019-01-19T02:02:47.325Z,-21088.97
2019-01-19T02:05:40.448Z,-21084.13
2019-01-19T02:08:15.545Z,-21086.98
2019-01-19T02:10:47.021Z,-21093.39
2019-01-19T02:13:30.541Z,-21080.41
2019-01-19T02:16:07.909Z,-21071.86
2019-01-19T02:18:39.324Z,-21082.13
2019-01-19T02:21:39.361Z,-21074.14
2019-01-19T02:24:13.947Z,-21102.51
2019-01-19T02:27:02.156Z,-21081.27
2019-01-19T02:29:49.886Z,-21073.86
2019-01-19T02:32:36.206Z,-21077.57
2019-01-19T02:35:19.514Z,-21075.28
2019-01-19T02:38:00.029Z,-21066.44
2019-01-19T02:40:48.794Z,-21064.59
2019-01-19T02:43:20.279Z,-21063.59
2019-01-19T02:45:54.404Z,-21060.60
2019-01-19T02:48:31.619Z,-21060.03
2019-01-19T02:51:03.114Z,-21047.32
2019-01-19T02:53:49.652Z,-21048.89
2019-01-19T02:56:38.987Z,-21036.33
2019-01-19T02:59:13.543Z,-21042.47
2019-01-19T03:01:44.992Z,-21062.73
2019-01-19T03:04:22.307Z,-21037.90
2019-01-19T03:07:02.594Z,-21034.48
2019-01-19T03:10:05.990Z,-21026.05
2019-01-19T03:12:43.330Z,-21035.34
2019-01-19T03:15:14.752Z,-21054.03
2019-01-19T03:17:55.161Z,-21063.02
2019-01-19T03:20:38.343Z,-21074.14
2019-01-19T03:23:41.458Z,-21066.59
2019-01-19T03:26:12.902Z,-21059.60
2019-01-19T03:29:06.872Z,-21047.32
2019-01-19T03:31:46.798Z,-21039.62
2019-01-19T03:34:18.233Z,-21044.61
2019-01-19T03:36:55.639Z,-21047.04
2019-01-19T03:40:14.919Z,-21059.17
2019-01-19T03:43:10.651Z,-21030.05
2019-01-19T03:46:01.553Z,-21041.05
2019-01-19T03:48:48.044Z,-21039.90
2019-01-19T03:51:25.128Z,-21049.46
2019-01-19T03:54:08.402Z,-21052.46
2019-01-19T03:56:51.904Z,-21062.73
2019-01-19T03:59:35.252Z,-21039.76
2019-01-19T04:02:27.935Z,-21057.60
2019-01-19T04:05:08.369Z,-21029.34
2019-01-19T04:07:39.825Z,-21032.77
2019-01-19T04:10:11.247Z,-21024.19
2019-01-19T04:12:45.265Z,-21038.90
2019-01-19T04:15:43.829Z,-21023.76
2019-01-19T04:18:17.780Z,-21009.18
2019-01-19T04:21:22.592Z,-21030.05
2019-01-19T04:23:56.726Z,-21052.46
2019-01-19T04:26:28.162Z,-21044.18
2019-01-19T04:28:56.694Z,-21049.75
2019-01-19T04:31:24.953Z,-21046.18
2019-01-19T04:33:53.368Z,-21032.91
2019-01-19T04:36:21.961Z,-21046.18
2019-01-19T04:38:50.390Z,-21040.90
2019-01-19T04:41:18.638Z,-21039.62
2019-01-19T04:43:46.932Z,-21059.46
2019-01-19T04:46:15.181Z,-21043.18
2019-01-19T04:48:43.812Z,-21046.18
2019-01-19T04:51:12.173Z,-21047.18
2019-01-19T04:53:40.445Z,-21025.19
2019-01-19T04:56:08.703Z,-21043.90
2019-01-19T04:58:36.947Z,-21050.75
2019-01-19T05:01:05.352Z,-21035.19
2019-01-19T05:03:33.748Z,-21052.89
2019-01-19T05:06:02.011Z,-21052.32
2019-01-19T05:08:30.291Z,-21057.74
2019-01-19T05:10:58.575Z,-21059.74
2019-01-19T05:13:26.850Z,-21049.75
2019-01-19T05:15:55.111Z,-21050.04
2019-01-19T05:18:23.763Z,-21039.62
2019-01-19T05:20:52.083Z,-21061.59
2019-01-19T05:23:20.423Z,-21058.46
2019-01-19T05:25:48.751Z,-21078.57
2019-01-19T05:28:17.049Z,-21072.72
2019-01-19T05:30:45.300Z,-21054.03
2019-01-19T05:33:13.558Z,-21060.31
2019-01-19T05:35:41.835Z,-21063.02
2019-01-19T05:38:10.111Z,-21074.29
2019-01-19T05:40:38.448Z,-21056.17
2019-01-19T05:43:06.794Z,-21067.01
2019-01-19T05:45:35.062Z,-21068.01
2019-01-19T05:48:03.335Z,-21085.13
2019-01-19T05:50:31.592Z,-21083.13
2019-01-19T05:52:59.860Z,-21074.86
2019-01-19T05:55:28.133Z,-21063.87
2019-01-19T05:57:56.397Z,-21056.60
2019-01-19T06:00:26.926Z,-21055.03
2019-01-19T06:02:55.178Z,-21054.17
2019-01-19T06:05:23.449Z,-21040.90
2019-01-19T06:07:51.692Z,-21050.75
2019-01-19T06:10:19.965Z,-21049.61
2019-01-19T06:12:48.213Z,-21067.87
2019-01-19T06:15:16.781Z,-21047.32
2019-01-19T06:17:45.032Z,-21060.03
2019-01-19T06:20:17.041Z,-21049.61
2019-01-19T06:22:45.711Z,-21049.46
2019-01-19T06:25:16.991Z,-21038.62
2019-01-19T06:27:45.327Z,-21042.19
2019-01-19T06:30:21.863Z,-21060.88
2019-01-19T06:32:50.254Z,-21044.18
2019-01-19T06:35:18.829Z,-21043.47
2019-01-19T06:37:47.204Z,-21042.90
2019-01-19T06:40:17.583Z,-21050.04
2019-01-19T06:42:46.006Z,-21050.46
2019-01-19T06:45:19.266Z,-21055.46
2019-01-19T06:47:47.557Z,-21051.61
2019-01-19T06:50:16.850Z,-21040.47
2019-01-19T06:52:45.153Z,-21056.60
2019-01-19T06:55:16.051Z,-21058.60
2019-01-19T06:57:44.313Z,-21054.03
2019-01-19T07:00:17.636Z,-21058.60
2019-01-19T07:02:45.970Z,-21050.75
2019-01-19T07:05:14.354Z,-21058.17
2019-01-19T07:07:42.682Z,-21051.46
2019-01-19T07:10:13.730Z,-21054.89
2019-01-19T07:12:41.981Z,-21049.32
2019-01-19T07:15:11.979Z,-21037.90
2019-01-19T07:17:40.337Z,-21017.62
2019-01-19T07:20:11.590Z,-21024.48
2019-01-19T07:22:39.854Z,-21034.48
2019-01-19T07:25:08.199Z,-21026.62
2019-01-19T07:27:36.447Z,-21010.61
2019-01-19T07:30:07.928Z,-21003.04
2019-01-19T07:32:36.174Z,-21010.61
2019-01-19T07:35:04.687Z,-21015.04
2019-01-19T07:37:32.959Z,-21004.75
2019-01-19T07:40:01.216Z,-21009.61
2019-01-19T07:42:29.475Z,-21001.46
2019-01-19T07:44:57.738Z,-21005.32
2019-01-19T07:47:26.264Z,-21006.90
2019-01-19T07:49:54.527Z,-21000.89
2019-01-19T07:52:22.766Z,-21009.89
2019-01-19T07:54:51.053Z,-21018.20
2019-01-19T07:57:19.288Z,-21023.48
2019-01-19T07:59:47.566Z,-21014.90
2019-01-19T08:02:15.974Z,-21018.48
2019-01-19T08:04:44.231Z,-21015.90
2019-01-19T08:07:17.275Z,-21032.91
2019-01-19T08:09:42.475Z,-21032.91
2019-01-19T08:12:10.744Z,-21019.48
2019-01-19T08:14:38.998Z,-21022.19
2019-01-19T08:17:07.277Z,-21028.19
2019-01-19T08:19:35.537Z,-21034.19
2019-01-19T08:22:03.865Z,-21019.62
2019-01-19T08:24:32.127Z,-21020.05
2019-01-19T08:27:00.525Z,-21043.33
2019-01-19T08:29:28.824Z,-21043.61
2019-01-19T08:31:57.120Z,-21033.34
2019-01-19T08:34:25.465Z,-21036.62
2019-01-19T08:36:53.739Z,-21028.91
2019-01-19T08:39:22.028Z,-21031.62
2019-01-19T08:41:50.296Z,-21040.05
2019-01-19T08:44:18.561Z,-21048.61
2019-01-19T08:46:46.816Z,-21042.04
2019-01-19T08:49:15.070Z,-21074.14
2019-01-19T08:51:43.465Z,-21062.45
2019-01-19T08:54:11.739Z,-21050.46
2019-01-19T08:56:40.013Z,-21064.88
2019-01-19T08:59:08.270Z,-21088.69
2019-01-19T09:01:36.541Z,-21066.87
2019-01-19T09:04:04.998Z,-21079.42
2019-01-19T09:06:33.277Z,-21103.50
2019-01-19T09:09:01.564Z,-21096.67
2019-01-19T09:11:29.827Z,-21091.68
2019-01-19T09:13:58.198Z,-21113.05
2019-01-19T09:16:26.527Z,-21095.67
2019-01-19T09:18:58.123Z,-21105.79
2019-01-19T09:21:26.416Z,-21106.21
2019-01-19T09:23:58.117Z,-21110.91
2019-01-19T09:26:26.481Z,-21100.80
2019-01-19T09:28:54.767Z,-21096.67
2019-01-19T09:31:23.085Z,-21086.98
2019-01-19T09:33:51.344Z,-21093.96
2019-01-19T09:36:19.714Z,-21113.19
2019-01-19T09:38:47.960Z,-21106.07
2019-01-19T09:41:16.293Z,-21105.07
2019-01-19T09:43:44.546Z,-21096.39
2019-01-19T09:46:12.868Z,-21098.66
2019-01-19T09:48:41.203Z,-21114.47
2019-01-19T09:51:09.524Z,-21113.19
2019-01-19T09:53:37.873Z,-21117.18
2019-01-19T09:56:06.233Z,-21138.24
2019-01-19T09:58:34.511Z,-21132.83
2019-01-19T10:01:02.760Z,-21146.63
2019-01-19T10:03:31.046Z,-21158.42
2019-01-19T10:05:59.336Z,-21172.06
2019-01-19T10:08:27.588Z,-21166.81
2019-01-19T10:10:55.865Z,-21163.82
2019-01-19T10:13:24.596Z,-21135.81
2019-01-19T10:15:52.930Z,-21180.59
2019-01-19T10:18:21.539Z,-21164.96
2019-01-19T10:20:49.834Z,-21161.41
2019-01-19T10:23:18.163Z,-21158.57
2019-01-19T10:25:46.483Z,-21155.02
2019-01-19T10:28:14.765Z,-21130.84
2019-01-19T10:30:43.041Z,-21145.92
2019-01-19T10:33:11.341Z,-21121.59
2019-01-19T10:35:39.728Z,-21135.11
2019-01-19T10:38:07.975Z,-21135.25
2019-01-19T10:40:36.260Z,-21128.42
2019-01-19T10:43:04.595Z,-21147.20
2019-01-19T10:45:32.959Z,-21159.00
2019-01-19T10:48:01.283Z,-21162.54
2019-01-19T10:50:29.572Z,-21157.15
2019-01-19T10:52:57.839Z,-21153.30
2019-01-19T10:55:26.101Z,-21145.92
2019-01-19T10:57:54.469Z,-21124.72
2019-01-19T11:00:30.578Z,-21120.45
2019-01-19T11:02:59.392Z,-21125.57
2019-01-19T11:05:28.550Z,-21101.80
2019-01-19T11:08:03.575Z,-21106.93
2019-01-19T11:10:30.458Z,-21128.42
2019-01-19T11:12:58.851Z,-21116.61
2019-01-19T11:15:27.109Z,-21132.12
2019-01-19T11:17:55.395Z,-21138.95
2019-01-19T11:20:26.456Z,-21130.84
2019-01-19T11:22:55.568Z,-21136.10
2019-01-19T11:25:23.905Z,-21141.23
2019-01-19T11:27:52.229Z,-21136.38
2019-01-19T11:30:28.416Z,-21144.78
2019-01-19T11:32:56.662Z,-21147.20
2019-01-19T11:35:25.009Z,-21152.46
2019-01-19T11:37:53.332Z,-21119.17
2019-01-19T11:40:36.122Z,-21155.72
2019-01-19T11:43:05.940Z,-21140.23
2019-01-19T11:45:34.222Z,-21149.61
2019-01-19T11:48:02.590Z,-21151.60
2019-01-19T11:50:30.910Z,-21152.03
2019-01-19T11:52:59.219Z,-21174.19
2019-01-19T11:55:27.502Z,-21185.98
2019-01-19T11:57:58.897Z,-21201.59
2019-01-19T12:00:35.328Z,-21201.17
2019-01-19T12:03:04.036Z,-21232.79
2019-01-19T12:05:32.290Z,-21235.05
2019-01-19T12:08:08.864Z,-21241.43
2019-01-19T12:10:37.327Z,-21241.43
2019-01-19T12:13:05.597Z,-21254.87
2019-01-19T12:15:33.906Z,-21293.91
2019-01-19T12:18:02.183Z,-21340.63
2019-01-19T12:20:35.363Z,-21345.71
2019-01-19T12:23:03.797Z,-21377.55
2019-01-19T12:25:32.041Z,-21376.28
2019-01-19T12:28:00.331Z,-21372.34
2019-01-19T12:30:30.940Z,-21368.96
2019-01-19T12:32:59.216Z,-21393.02
2019-01-19T12:35:27.962Z,-21396.40
2019-01-19T12:37:57.291Z,-21422.82
2019-01-19T12:40:27.523Z,-21403.71
2019-01-19T12:43:04.907Z,-21415.09
2019-01-19T12:45:36.370Z,-21374.73
2019-01-19T12:48:04.910Z,-21368.25
2019-01-19T12:50:33.192Z,-21394.01
2019-01-19T12:53:01.486Z,-21399.92
2019-01-19T12:55:29.764Z,-21415.66
2019-01-19T12:57:58.040Z,-21449.50
2019-01-19T13:00:28.073Z,-21430.41
2019-01-19T13:02:56.872Z,-21421.28
2019-01-19T13:05:33.071Z,-21453.56
2019-01-19T13:08:01.926Z,-21428.72
2019-01-19T13:10:33.371Z,-21433.50
2019-01-19T13:13:02.559Z,-21386.27
2019-01-19T13:15:49.341Z,-21418.89
2019-01-19T13:18:47.269Z,-21445.01
2019-01-19T13:21:41.247Z,-21413.13
2019-01-19T13:24:12.695Z,-21351.63
2019-01-19T13:26:45.158Z,-21336.26
2019-01-19T13:29:16.636Z,-21307.89
2019-01-19T13:31:48.079Z,-21307.61
2019-01-19T13:34:39.905Z,-21297.59
2019-01-19T13:37:20.368Z,-21297.73
2019-01-19T13:40:07.028Z,-21275.68
2019-01-19T13:43:08.607Z,-21273.70
2019-01-19T13:46:00.347Z,-21324.55
2019-01-19T13:49:04.475Z,-21323.28
2019-01-19T13:51:39.228Z,-21287.84
2019-01-19T13:54:28.457Z,-21272.28
2019-01-19T13:57:02.857Z,-21276.80
2019-01-19T13:59:39.815Z,-21299.99
2019-01-19T14:02:20.086Z,-21342.18
2019-01-19T14:05:07.708Z,-21336.26
2019-01-19T14:07:39.157Z,-21314.11
2019-01-19T14:10:28.158Z,-21271.57
2019-01-19T14:13:19.580Z,-21259.12
2019-01-19T14:15:54.158Z,-21267.75
2019-01-19T14:18:42.400Z,-21244.82
2019-01-19T14:21:31.796Z,-21253.32
2019-01-19T14:24:24.636Z,-21218.75
2019-01-19T14:27:16.936Z,-21220.17
2019-01-19T14:30:21.925Z,-21208.96
2019-01-19T14:33:05.161Z,-21222.02
2019-01-19T14:35:36.631Z,-21219.04
2019-01-19T14:38:38.575Z,-21199.04
2019-01-19T14:41:32.623Z,-21171.50
2019-01-19T14:44:19.074Z,-21172.49
2019-01-19T14:46:56.563Z,-21173.63
2019-01-19T14:49:53.336Z,-21179.45
2019-01-19T14:52:40.015Z,-21165.68
2019-01-19T14:55:26.174Z,-21194.64
2019-01-19T14:58:09.318Z,-21175.33
2019-01-19T15:00:55.726Z,-21182.29
2019-01-19T15:03:45.136Z,-21189.67
2019-01-19T15:06:25.458Z,-21176.61
2019-01-19T15:09:13.592Z,-21169.65
2019-01-19T15:11:45.064Z,-21178.46
2019-01-19T15:14:26.058Z,-21178.31
2019-01-19T15:17:15.360Z,-21172.92
2019-01-19T15:19:52.310Z,-21149.90
2019-01-19T15:22:26.616Z,-21149.33
2019-01-19T15:25:14.681Z,-21158.00
2019-01-19T15:27:54.822Z,-21167.66
2019-01-19T15:30:46.782Z,-21161.70
2019-01-19T15:33:39.136Z,-21161.27
2019-01-19T15:36:10.626Z,-21156.44
2019-01-19T15:38:42.033Z,-21128.85
2019-01-19T15:41:22.393Z,-21143.08
2019-01-19T15:44:06.191Z,-21147.34
2019-01-19T15:46:55.552Z,-21149.61
2019-01-19T15:49:36.050Z,-21151.32
2019-01-19T15:52:09.972Z,-21144.64
2019-01-19T15:54:41.418Z,-21160.98
2019-01-19T15:57:21.670Z,-21170.50
2019-01-19T16:00:12.446Z,-21164.54
2019-01-19T16:02:44.259Z,-21131.69
2019-01-19T16:05:27.479Z,-21105.64
2019-01-19T16:08:07.227Z,-21095.10
2019-01-19T16:10:41.567Z,-21135.25
2019-01-19T16:13:24.794Z,-21119.45
2019-01-19T16:16:20.386Z,-21134.54
2019-01-19T16:19:09.991Z,-21141.93
2019-01-19T16:21:41.431Z,-21141.37
2019-01-19T16:24:27.663Z,-21147.20
2019-01-19T16:27:02.066Z,-21140.66
2019-01-19T16:29:48.722Z,-21127.28
2019-01-19T16:32:36.546Z,-21125.86
2019-01-19T16:35:29.038Z,-21127.28
2019-01-19T16:38:06.094Z,-21132.83
2019-01-19T16:40:58.130Z,-21120.16
2019-01-19T16:43:32.334Z,-21133.40
2019-01-19T16:46:09.228Z,-21112.19
2019-01-19T16:48:49.677Z,-21126.14
2019-01-19T16:51:33.071Z,-21105.79
2019-01-19T16:54:16.737Z,-21092.96
2019-01-19T16:56:53.694Z,-21119.03
2019-01-19T16:59:25.190Z,-21147.05
2019-01-19T17:01:59.299Z,-21133.82
2019-01-19T17:04:42.903Z,-21116.18
2019-01-19T17:07:36.637Z,-21122.59
2019-01-19T17:10:10.716Z,-21126.99
2019-01-19T17:12:57.171Z,-21107.63
2019-01-19T17:15:43.720Z,-21118.60
2019-01-19T17:18:15.167Z,-21108.06
2019-01-19T17:20:55.491Z,-21109.91
2019-01-19T17:23:29.745Z,-21110.05
2019-01-19T17:26:16.261Z,-21112.48
2019-01-19T17:28:56.699Z,-21127.28
2019-01-19T17:31:33.999Z,-21131.69
2019-01-19T17:34:40.261Z,-21137.81
2019-01-19T17:37:14.124Z,-21137.81
2019-01-19T17:39:54.416Z,-21122.16
2019-01-19T17:42:25.877Z,-21126.85
2019-01-19T17:45:15.656Z,-21135.11
2019-01-19T17:47:59.087Z,-21111.62
2019-01-19T17:50:39.652Z,-21107.92
2019-01-19T17:53:41.492Z,-21114.75
2019-01-19T17:56:24.966Z,-21088.41
2019-01-19T17:59:08.161Z,-21111.76
2019-01-19T18:01:48.271Z,-21089.97
2019-01-19T18:04:31.740Z,-21095.81
2019-01-19T18:07:27.337Z,-21082.98
2019-01-19T18:10:32.045Z,-21080.41
2019-01-19T18:13:09.229Z,-21095.24
2019-01-19T18:15:56.446Z,-21081.99
2019-01-19T18:18:30.628Z,-21093.82
2019-01-19T18:21:08.029Z,-21112.76
2019-01-19T18:23:54.544Z,-21080.70
2019-01-19T18:26:31.756Z,-21078.85
2019-01-19T18:29:12.145Z,-21082.41
2019-01-19T18:31:52.431Z,-21075.14
2019-01-19T18:34:28.089Z,-21077.57
2019-01-19T18:37:26.206Z,-21069.73
2019-01-19T18:40:00.678Z,-21055.60
2019-01-19T18:42:44.217Z,-21048.04
2019-01-19T18:45:18.463Z,-21053.60
2019-01-19T18:47:49.969Z,-21052.89
2019-01-19T18:50:27.409Z,-21065.30
2019-01-19T18:53:17.009Z,-21089.12
2019-01-19T18:56:05.243Z,-21096.24
2019-01-19T18:58:55.832Z,-21087.27
2019-01-19T19:01:27.267Z,-21076.43
2019-01-19T19:04:07.400Z,-21073.29
2019-01-19T19:06:53.211Z,-21075.57
2019-01-19T19:09:39.912Z,-21095.53
2019-01-19T19:12:23.523Z,-21104.36
2019-01-19T19:15:11.401Z,-21091.11
2019-01-19T19:17:45.422Z,-21091.83
2019-01-19T19:20:22.306Z,-21095.53
2019-01-19T19:23:05.558Z,-21092.96
2019-01-19T19:25:37.009Z,-21066.16
2019-01-19T19:28:17.464Z,-21037.90
2019-01-19T19:31:04.076Z,-21025.91
2019-01-19T19:33:47.651Z,-21032.91
2019-01-19T19:36:46.136Z,-21053.89
2019-01-19T19:39:20.306Z,-21019.91
2019-01-19T19:41:57.663Z,-21017.62
2019-01-19T19:44:44.047Z,-21041.47
2019-01-19T19:47:18.422Z,-21033.91
2019-01-19T19:50:09.507Z,-21031.62
2019-01-19T19:52:37.829Z,-21039.47
2019-01-19T19:55:05.085Z,-21071.58
2019-01-19T19:57:33.454Z,-21074.86
2019-01-19T20:00:01.732Z,-21077.28
2019-01-19T20:02:30.081Z,-21057.32
2019-01-19T20:04:58.408Z,-21072.29
2019-01-19T20:07:26.672Z,-21071.72
2019-01-19T20:09:54.951Z,-21060.60
2019-01-19T20:12:23.235Z,-21039.05
2019-01-19T20:14:51.498Z,-21016.33
2019-01-19T20:17:19.929Z,-21052.89
2019-01-19T20:19:48.181Z,-21039.90
2019-01-19T20:22:16.461Z,-21066.44
2019-01-19T20:24:44.758Z,-21042.33
2019-01-19T20:27:13.032Z,-21034.91
2019-01-19T20:29:41.425Z,-21021.91
2019-01-19T20:32:09.687Z,-21001.46
2019-01-19T20:34:37.956Z,-21001.61
2019-01-19T20:37:06.244Z,-20995.45
2019-01-19T20:39:34.485Z,-21029.34
2019-01-19T20:42:02.781Z,-21025.19
2019-01-19T20:44:31.040Z,-21004.32
2019-01-19T20:46:59.306Z,-20998.46
2019-01-19T20:49:27.579Z,-20998.46
2019-01-19T20:51:55.918Z,-21032.48
2019-01-19T20:54:24.218Z,-21029.62
2019-01-19T20:56:52.478Z,-21003.46
2019-01-19T20:59:23.438Z,-21020.19
2019-01-19T21:01:51.811Z,-21039.90
2019-01-19T21:04:20.071Z,-21000.60
2019-01-19T21:06:48.379Z,-20990.88
2019-01-19T21:09:16.633Z,-20991.31
2019-01-19T21:11:44.967Z,-20997.89
2019-01-19T21:14:13.258Z,-21022.34
2019-01-19T21:16:41.544Z,-21027.91
2019-01-19T21:19:09.968Z,-21034.62
2019-01-19T21:21:39.070Z,-21020.48
2019-01-19T21:24:07.359Z,-21040.33
2019-01-19T21:26:35.680Z,-21020.05
2019-01-19T21:29:04.176Z,-21039.76
2019-01-19T21:31:32.452Z,-21046.46
2019-01-19T21:34:00.882Z,-21021.05
2019-01-19T21:36:29.293Z,-20981.01
2019-01-19T21:38:57.652Z,-21021.62
2019-01-19T21:41:25.940Z,-21029.34
2019-01-19T21:43:54.263Z,-21019.77
2019-01-19T21:46:22.599Z,-21022.62
2019-01-19T21:48:51.653Z,-21027.76
2019-01-19T21:51:21.161Z,-21028.91
2019-01-19T21:53:49.457Z,-21031.62
2019-01-19T21:56:17.749Z,-21041.05
2019-01-19T21:58:47.538Z,-20998.46
2019-01-19T22:01:18.138Z,-20983.44
2019-01-19T22:03:46.415Z,-21022.76
2019-01-19T22:06:15.327Z,-20990.02
2019-01-19T22:08:43.600Z,-20989.45
2019-01-19T22:11:11.863Z,-21001.03
2019-01-19T22:13:40.124Z,-20984.59
2019-01-19T22:16:08.397Z,-20991.17
2019-01-19T22:18:36.660Z,-20978.58
2019-01-19T22:21:05.059Z,-20976.14
2019-01-19T22:23:34.875Z,-20957.39
2019-01-19T22:26:03.152Z,-20962.40
2019-01-19T22:28:31.425Z,-20994.46
2019-01-19T22:30:59.738Z,-20969.85
2019-01-19T22:33:28.290Z,-21001.75
2019-01-19T22:35:58.707Z,-21019.91
2019-01-19T22:38:26.962Z,-21008.61
2019-01-19T22:40:55.330Z,-21001.03
2019-01-19T22:43:27.460Z,-20983.58
2019-01-19T22:45:55.726Z,-21008.18
2019-01-19T22:48:23.968Z,-21022.19
2019-01-19T22:50:52.281Z,-21026.05
2019-01-19T22:53:20.571Z,-21027.62
2019-01-19T22:55:48.868Z,-21023.19
2019-01-19T22:58:17.212Z,-21015.62
2019-01-19T23:00:59.498Z,-21010.18
2019-01-19T23:03:29.328Z,-20973.28
2019-01-19T23:05:57.625Z,-20966.13
2019-01-19T23:08:25.929Z,-20957.11
2019-01-19T23:11:01.359Z,-20966.98
2019-01-19T23:13:27.518Z,-20954.38
2019-01-19T23:15:55.838Z,-20995.45
2019-01-19T23:18:24.093Z,-20947.79
2019-01-19T23:20:52.413Z,-20998.75
2019-01-19T23:23:20.672Z,-21000.60
2019-01-19T23:25:48.925Z,-21007.32
2019-01-19T23:28:17.188Z,-21004.04
2019-01-19T23:30:45.452Z,-21029.77
2019-01-19T23:33:13.730Z,-21016.91
2019-01-19T23:35:42.142Z,-21022.91
2019-01-19T23:38:10.435Z,-21015.62
2019-01-19T23:40:38.683Z,-21005.61
2019-01-19T23:43:07.104Z,-21013.62
2019-01-19T23:45:35.413Z,-21016.77
2019-01-19T23:48:03.685Z,-21004.75
2019-01-19T23:50:32.074Z,-21015.19
2019-01-19T23:53:00.352Z,-20977.15
2019-01-19T23:55:28.633Z,-20998.75
2019-01-19T23:57:56.955Z,-20975.29
